Terminal Aerodrome Forecast
Issued by NWS Flagstaff, AZ

Home | Current Version | Previous Version | Text Only | Print | Product List | Glossary On
Versions: 1 2 3 4 5 6 7 8 9 10 11 12 13 14 15 16 17 18 19 20 21
107
FTUS45 KFGZ 281401 AAA
TAFINW
TAF AMD
KINW 281401Z 2814/0112 26012G20KT 6SM -RA BR SCT015 OVC025
      TEMPO 2814/2816 3SM -RA BR OVC015
     FM281800 28013G20KT P6SM SCT025 BKN035
     FM010200 28009KT P6SM SKC=

USA.gov is the U.S. government's official web portal to all federal, state and local government web resources and services.